Time;durP1;ratioP1;P1;durP2;ratioP2;P2;SDS_P1;SDS_P2;PMS_P1;PMS_P2;Temp;Humidity;BMP_temperature;BMP_pressure;BME280_temperature;BME280_humidity;BME280_pressure;Samples;Min_cycle;Max_cycle;Signal;HPM_P1;HPM_P2
2021/07/08 00:01:51;;;;;;;3.03;1.70;;;15.70;99.90;;;;;;4968334;28;20074;-81
2021/07/08 00:04:17;;;;;;;2.30;2.10;;;15.70;99.90;;;;;;4980991;28;20039;-81
2021/07/08 00:06:43;;;;;;;2.15;1.95;;;15.70;99.90;;;;;;4966019;28;20105;-82
2021/07/08 00:09:10;;;;;;;2.65;2.10;;;15.70;99.90;;;;;;4981126;28;20468;-81
2021/07/08 00:11:37;;;;;;;2.13;1.92;;;15.80;99.90;;;;;;4985520;28;20027;-81
2021/07/08 00:14:03;;;;;;;2.20;2.00;;;15.70;99.90;;;;;;4966099;28;20062;-81
2021/07/08 00:16:29;;;;;;;2.25;1.90;;;15.80;99.90;;;;;;4985513;28;20599;-81
2021/07/08 00:18:55;;;;;;;2.28;2.10;;;15.80;99.90;;;;;;4983875;28;20037;-81
2021/07/08 00:21:24;;;;;;;2.38;2.10;;;15.80;99.90;;;;;;4977450;28;20038;-81
2021/07/08 00:23:51;;;;;;;3.17;2.05;;;15.80;99.90;;;;;;4963245;28;20077;-81
2021/07/08 00:26:17;;;;;;;2.78;2.25;;;15.80;99.90;;;;;;4972222;28;20034;-81
2021/07/08 00:28:43;;;;;;;3.33;1.98;;;15.80;99.90;;;;;;4983481;28;20037;-81
2021/07/08 00:31:09;;;;;;;2.20;2.00;;;15.90;99.90;;;;;;4970266;28;20039;-81
2021/07/08 00:33:35;;;;;;;1.90;1.80;;;15.90;99.90;;;;;;4973755;28;20390;-81
2021/07/08 00:36:01;;;;;;;4.15;2.10;;;15.90;99.90;;;;;;4991831;28;20058;-81
2021/07/08 00:38:27;;;;;;;2.30;2.10;;;15.90;99.90;;;;;;4962077;28;20039;-81
2021/07/08 00:40:53;;;;;;;2.83;2.30;;;15.90;99.90;;;;;;4985009;28;20049;-81
2021/07/08 00:43:18;;;;;;;2.75;2.55;;;16.00;99.90;;;;;;4980648;28;20126;-81
2021/07/08 00:45:45;;;;;;;2.90;2.53;;;16.00;99.90;;;;;;4968352;28;20516;-81
2021/07/08 00:48:11;;;;;;;2.88;2.67;;;16.00;99.90;;;;;;4969492;28;20055;-81
2021/07/08 00:50:42;;;;;;;2.50;2.30;;;16.00;99.90;;;;;;4950086;28;20138;-81
2021/07/08 00:53:10;;;;;;;2.85;2.35;;;16.00;99.90;;;;;;4980191;28;20489;-81
2021/07/08 00:55:36;;;;;;;3.05;2.70;;;16.00;99.90;;;;;;4982059;28;20481;-81
2021/07/08 00:58:02;;;;;;;2.40;2.20;;;16.00;99.90;;;;;;4982031;28;20038;-81
2021/07/08 01:00:30;;;;;;;3.03;2.20;;;16.00;99.90;;;;;;4961410;28;20093;-81
2021/07/08 01:02:57;;;;;;;2.63;2.42;;;16.00;99.90;;;;;;4971372;28;20027;-82
2021/07/08 01:05:28;;;;;;;2.03;1.92;;;16.00;99.90;;;;;;4989009;28;20037;-81
2021/07/08 01:07:55;;;;;;;2.08;1.98;;;16.00;99.90;;;;;;4971361;28;20035;-82
2021/07/08 01:10:21;;;;;;;4.43;2.22;;;16.00;99.90;;;;;;4986059;28;20058;-82
2021/07/08 01:12:46;;;;;;;6.47;1.60;;;16.00;99.90;;;;;;4983203;28;20062;-82
2021/07/08 01:15:13;;;;;;;3.97;1.50;;;16.00;99.90;;;;;;4973178;28;20440;-82
2021/07/08 01:17:42;;;;;;;2.28;1.40;;;16.00;99.90;;;;;;4984448;28;20080;-81
2021/07/08 01:20:08;;;;;;;1.42;1.33;;;16.00;99.90;;;;;;4960695;28;20039;-82
2021/07/08 01:22:35;;;;;;;1.13;1.13;;;16.00;99.90;;;;;;4964417;28;20113;-82
2021/07/08 01:25:02;;;;;;;1.42;1.30;;;16.00;99.90;;;;;;4964351;28;20478;-82
2021/07/08 01:27:29;;;;;;;1.85;1.70;;;15.90;99.90;;;;;;4980957;28;20022;-82
2021/07/08 01:29:54;;;;;;;1.75;1.58;;;15.90;99.90;;;;;;4978321;28;20030;-82
2021/07/08 01:32:20;;;;;;;1.60;1.50;;;15.90;99.90;;;;;;4972857;28;20045;-82
2021/07/08 01:34:46;;;;;;;3.55;1.92;;;15.80;99.90;;;;;;4972860;28;20038;-82
2021/07/08 01:37:12;;;;;;;6.28;1.73;;;15.90;99.90;;;;;;4980291;28;20043;-82
2021/07/08 01:39:38;;;;;;;1.30;1.20;;;15.80;99.90;;;;;;4964428;28;20074;-82
2021/07/08 01:42:04;;;;;;;2.03;1.40;;;15.80;99.90;;;;;;4968979;28;20077;-82
2021/07/08 01:44:30;;;;;;;1.45;1.35;;;15.80;99.90;;;;;;4982474;28;20078;-81
2021/07/08 01:46:56;;;;;;;2.22;2.03;;;15.80;99.90;;;;;;4976624;28;20026;-82
2021/07/08 01:49:23;;;;;;;3.05;1.67;;;15.70;99.90;;;;;;4970345;28;20429;-82
2021/07/08 01:51:50;;;;;;;1.70;1.60;;;15.70;99.90;;;;;;4984280;28;20082;-82
2021/07/08 01:54:15;;;;;;;1.70;1.60;;;15.70;99.90;;;;;;4982439;28;20429;-82
2021/07/08 01:56:41;;;;;;;1.90;1.80;;;15.70;99.90;;;;;;4971931;28;20030;-82
2021/07/08 01:59:08;;;;;;;2.30;2.10;;;15.70;99.90;;;;;;4980409;28;20027;-82
2021/07/08 02:01:33;;;;;;;3.75;2.05;;;15.70;99.90;;;;;;4991134;28;20062;-82
2021/07/08 02:03:59;;;;;;;2.92;1.95;;;15.70;99.90;;;;;;4990224;28;20034;-82
2021/07/08 02:06:25;;;;;;;2.50;1.92;;;15.70;99.90;;;;;;4975415;28;20071;-82
2021/07/08 02:08:51;;;;;;;2.30;2.10;;;15.70;99.90;;;;;;4966927;28;20030;-82
2021/07/08 02:11:17;;;;;;;2.00;1.90;;;15.70;99.90;;;;;;4970280;28;20043;-81
2021/07/08 02:13:43;;;;;;;2.40;2.20;;;15.70;99.90;;;;;;4969952;28;20046;-82
2021/07/08 02:16:11;;;;;;;3.15;2.85;;;15.70;99.90;;;;;;4972911;28;20030;-82
2021/07/08 02:18:38;;;;;;;3.03;2.53;;;15.70;99.90;;;;;;4938294;28;20085;-82
2021/07/08 02:21:05;;;;;;;2.65;2.45;;;15.70;99.90;;;;;;4980281;28;20042;-82
2021/07/08 02:23:32;;;;;;;2.92;2.58;;;15.70;99.90;;;;;;4959697;28;20038;-81
2021/07/08 02:25:58;;;;;;;4.47;2.28;;;15.70;99.90;;;;;;4981700;28;20034;-82
2021/07/08 02:28:25;;;;;;;4.47;2.35;;;15.70;99.90;;;;;;4968428;28;20396;-82
2021/07/08 02:30:50;;;;;;;2.00;1.88;;;15.70;99.90;;;;;;4975100;28;20030;-81
2021/07/08 02:33:16;;;;;;;3.53;2.40;;;15.70;99.90;;;;;;4957391;28;20560;-82
2021/07/08 02:35:42;;;;;;;2.67;2.47;;;15.70;99.90;;;;;;4978977;28;20133;-82
2021/07/08 02:38:08;;;;;;;2.90;2.70;;;15.70;99.90;;;;;;4949940;28;20043;-82
2021/07/08 02:40:38;;;;;;;2.90;2.60;;;15.70;99.90;;;;;;4972515;28;20117;-82
2021/07/08 02:43:05;;;;;;;2.40;2.20;;;15.70;99.90;;;;;;4991620;28;20049;-81
2021/07/08 02:45:33;;;;;;;3.28;2.53;;;15.70;99.90;;;;;;4968607;28;20406;-82
2021/07/08 02:48:02;;;;;;;2.53;2.33;;;15.70;99.90;;;;;;4971976;28;20464;-82
2021/07/08 02:50:30;;;;;;;2.90;2.60;;;15.70;99.90;;;;;;4982222;28;20113;-82
2021/07/08 02:52:56;;;;;;;2.53;2.33;;;15.70;99.90;;;;;;4955638;28;20071;-82
2021/07/08 02:55:22;;;;;;;3.30;2.30;;;15.80;99.90;;;;;;4948784;28;20034;-82
2021/07/08 02:57:48;;;;;;;2.28;2.17;;;15.80;99.90;;;;;;4968357;28;20045;-82
2021/07/08 03:00:17;;;;;;;3.30;2.58;;;15.70;99.90;;;;;;4986187;28;20037;-82
2021/07/08 03:02:43;;;;;;;2.97;2.50;;;15.70;99.90;;;;;;4982772;28;20101;-82
2021/07/08 03:05:10;;;;;;;3.58;3.22;;;15.70;99.90;;;;;;4975439;28;20035;-82
2021/07/08 03:07:40;;;;;;;3.00;2.70;;;15.70;99.90;;;;;;4984340;28;20515;-82
2021/07/08 03:10:08;;;;;;;2.80;2.60;;;15.80;99.90;;;;;;4984523;28;20027;-82
2021/07/08 03:12:35;;;;;;;2.45;2.15;;;15.80;99.90;;;;;;4963531;28;20090;-82
2021/07/08 03:15:00;;;;;;;2.58;2.38;;;15.80;99.90;;;;;;4979813;28;20030;-82
2021/07/08 03:17:26;;;;;;;2.88;2.50;;;15.80;99.90;;;;;;4969861;28;20973;-82
2021/07/08 03:19:52;;;;;;;3.72;2.60;;;15.70;99.90;;;;;;4977030;28;20027;-82
2021/07/08 03:22:18;;;;;;;3.03;2.83;;;15.80;99.90;;;;;;4965491;28;20102;-82
2021/07/08 03:24:44;;;;;;;3.55;2.45;;;15.80;99.90;;;;;;4974706;28;20384;-82
2021/07/08 03:27:10;;;;;;;3.20;2.97;;;15.80;99.90;;;;;;4990808;28;20088;-82
2021/07/08 03:29:36;;;;;;;2.95;2.60;;;15.70;99.90;;;;;;4987646;28;20476;-82
2021/07/08 03:32:02;;;;;;;2.50;2.30;;;15.70;99.90;;;;;;4967171;28;20098;-82
2021/07/08 03:34:28;;;;;;;5.72;3.35;;;15.70;99.90;;;;;;4991196;28;20018;-82
2021/07/08 03:36:53;;;;;;;3.35;2.60;;;15.70;99.90;;;;;;4978444;28;20382;-82
2021/07/08 03:39:19;;;;;;;3.63;2.65;;;15.70;99.90;;;;;;4976636;28;20080;-82
2021/07/08 03:41:45;;;;;;;3.05;2.67;;;15.70;99.90;;;;;;4985324;28;20034;-82
2021/07/08 03:44:11;;;;;;;2.70;2.30;;;15.70;99.90;;;;;;4966096;28;20090;-82
2021/07/08 03:46:36;;;;;;;4.00;2.35;;;15.70;99.90;;;;;;4967546;28;20058;-82
2021/07/08 03:49:03;;;;;;;3.25;2.80;;;15.70;99.90;;;;;;4964826;28;20043;-82
2021/07/08 03:51:28;;;;;;;1.85;1.75;;;15.70;99.90;;;;;;4956911;28;20030;-83
2021/07/08 03:53:54;;;;;;;2.20;2.08;;;15.80;99.90;;;;;;4982627;28;20041;-82
2021/07/08 03:56:20;;;;;;;1.77;1.67;;;15.80;99.90;;;;;;4964679;28;20046;-82
2021/07/08 03:58:46;;;;;;;1.98;1.65;;;15.80;99.90;;;;;;4971308;28;20523;-82
2021/07/08 04:01:11;;;;;;;1.80;1.70;;;15.80;99.90;;;;;;4955520;28;20135;-82
2021/07/08 04:03:37;;;;;;;1.20;1.10;;;15.90;99.90;;;;;;4989184;28;20030;-82
2021/07/08 04:06:03;;;;;;;1.98;1.70;;;15.90;99.90;;;;;;4974024;28;20070;-81
2021/07/08 04:08:29;;;;;;;1.60;1.50;;;15.90;99.90;;;;;;4980049;28;20092;-82
2021/07/08 04:10:55;;;;;;;1.88;1.73;;;15.90;99.90;;;;;;4951489;28;20034;-81
2021/07/08 04:13:21;;;;;;;1.75;1.65;;;15.90;99.90;;;;;;4976812;28;20066;-82
2021/07/08 04:15:50;;;;;;;2.45;2.25;;;15.90;99.90;;;;;;4971653;28;20030;-82
2021/07/08 04:18:17;;;;;;;3.13;2.60;;;15.90;99.90;;;;;;4971245;28;20041;-81
2021/07/08 04:20:44;;;;;;;3.20;2.50;;;16.00;99.90;;;;;;4984018;28;20393;-81
2021/07/08 04:23:12;;;;;;;3.00;2.80;;;15.90;99.90;;;;;;4970152;28;20130;-82
2021/07/08 04:25:39;;;;;;;3.22;2.80;;;15.90;99.90;;;;;;4946597;28;20708;-81
2021/07/08 04:28:07;;;;;;;2.92;2.72;;;15.90;99.90;;;;;;4976356;28;20129;-82
2021/07/08 04:30:34;;;;;;;3.00;2.70;;;15.90;99.90;;;;;;4974943;28;20042;-81
2021/07/08 04:33:00;;;;;;;3.42;2.97;;;15.90;99.90;;;;;;4969745;28;20095;-82
2021/07/08 04:38:06;;;;;;;4.97;3.30;;;15.90;99.90;;;;;;4980133;28;20034;-81
2021/07/08 04:40:32;;;;;;;3.40;3.10;;;15.90;99.90;;;;;;4968381;28;20548;-81
2021/07/08 04:42:59;;;;;;;3.38;3.03;;;15.80;99.90;;;;;;4989375;28;20038;-81
2021/07/08 04:45:24;;;;;;;2.80;2.60;;;15.90;99.90;;;;;;4972998;28;20030;-82
2021/07/08 04:47:51;;;;;;;3.10;2.80;;;15.90;99.90;;;;;;4959970;28;20030;-82
2021/07/08 04:50:21;;;;;;;3.42;3.13;;;15.90;99.90;;;;;;4970778;28;20042;-82
2021/07/08 04:52:48;;;;;;;3.30;2.92;;;15.80;99.90;;;;;;4956540;28;20022;-82
2021/07/08 04:55:16;;;;;;;2.70;2.50;;;15.80;99.90;;;;;;4965592;28;20081;-83
2021/07/08 04:57:42;;;;;;;4.07;2.75;;;15.80;99.90;;;;;;4967786;28;20034;-82
2021/07/08 05:00:10;;;;;;;4.88;2.90;;;15.70;99.90;;;;;;4959133;28;20034;-83
2021/07/08 05:02:43;;;;;;;3.10;2.80;;;15.70;99.90;;;;;;4970943;28;20498;-82
2021/07/08 05:05:11;;;;;;;4.60;1.73;;;15.70;99.90;;;;;;4968536;28;20022;-83
2021/07/08 05:07:37;;;;;;;1.85;1.60;;;15.60;99.90;;;;;;4967081;28;20513;-82
2021/07/08 05:10:05;;;;;;;2.78;2.03;;;15.60;99.90;;;;;;4960854;28;20029;-82
2021/07/08 05:12:32;;;;;;;3.45;2.25;;;15.60;99.90;;;;;;4956604;28;20053;-83
2021/07/08 05:14:57;;;;;;;2.72;2.53;;;15.60;99.90;;;;;;4957050;28;20065;-82
2021/07/08 05:17:24;;;;;;;4.65;3.00;;;15.60;99.90;;;;;;4971854;28;20104;-82
2021/07/08 05:19:49;;;;;;;3.95;3.40;;;15.60;99.90;;;;;;4969666;28;20143;-82
2021/07/08 05:22:19;;;;;;;3.67;3.38;;;15.60;99.90;;;;;;4985965;28;20514;-83
2021/07/08 05:24:45;;;;;;;3.78;3.47;;;15.70;99.90;;;;;;4981857;28;20478;-82
2021/07/08 05:27:17;;;;;;;4.00;3.60;;;15.70;99.90;;;;;;4952095;28;20158;-82
2021/07/08 05:29:44;;;;;;;5.82;3.53;;;15.80;99.90;;;;;;4968482;28;20113;-82
2021/07/08 05:32:13;;;;;;;3.50;2.95;;;15.80;99.90;;;;;;4958468;28;20037;-83
2021/07/08 05:34:39;;;;;;;4.53;3.78;;;15.80;99.90;;;;;;4966216;28;20031;-83
2021/07/08 05:37:05;;;;;;;3.95;3.58;;;15.80;99.90;;;;;;4964892;28;20105;-83
2021/07/08 05:39:31;;;;;;;4.10;3.13;;;15.80;99.90;;;;;;4982671;28;20079;-82
2021/07/08 05:41:57;;;;;;;2.60;2.40;;;15.90;99.90;;;;;;4944909;28;20665;-83
2021/07/08 05:44:22;;;;;;;3.08;2.63;;;15.90;99.90;;;;;;4963643;28;20026;-83
2021/07/08 05:46:48;;;;;;;3.10;2.80;;;15.90;99.90;;;;;;4949067;28;20035;-83
2021/07/08 05:49:14;;;;;;;3.92;2.60;;;15.90;99.90;;;;;;4963545;28;20073;-82
2021/07/08 05:51:40;;;;;;;3.00;2.80;;;15.90;99.90;;;;;;4972799;28;20039;-84
2021/07/08 05:54:06;;;;;;;2.78;2.58;;;15.90;99.90;;;;;;4971712;28;20066;-83
2021/07/08 05:56:32;;;;;;;3.63;3.33;;;15.90;99.90;;;;;;4969775;28;20109;-82
2021/07/08 05:58:58;;;;;;;3.60;3.20;;;15.80;99.90;;;;;;4939776;28;20022;-83
2021/07/08 06:01:23;;;;;;;2.95;2.70;;;15.80;99.90;;;;;;4949956;28;20601;-83
2021/07/08 06:03:49;;;;;;;2.85;2.58;;;15.80;99.90;;;;;;4971980;28;20501;-83
2021/07/08 06:06:16;;;;;;;3.42;3.13;;;15.80;99.90;;;;;;4951863;28;20035;-83
2021/07/08 06:08:44;;;;;;;4.20;3.35;;;15.80;99.90;;;;;;4982178;28;20030;-84
2021/07/08 06:11:10;;;;;;;4.03;3.63;;;15.80;99.90;;;;;;4969385;28;20449;-83
2021/07/08 06:13:36;;;;;;;4.25;3.28;;;15.80;99.90;;;;;;4972816;28;20023;-83
2021/07/08 06:16:03;;;;;;;3.92;3.33;;;15.80;99.90;;;;;;4979973;28;20026;-83
2021/07/08 06:18:29;;;;;;;4.75;3.40;;;15.80;99.90;;;;;;4973728;28;20026;-84
2021/07/08 06:20:56;;;;;;;4.00;3.45;;;15.80;99.90;;;;;;4982051;28;20516;-83
2021/07/08 06:23:22;;;;;;;4.22;3.67;;;15.90;99.90;;;;;;4965344;28;20069;-83
2021/07/08 06:25:49;;;;;;;5.80;3.63;;;15.90;99.90;;;;;;4958168;28;20063;-83
2021/07/08 06:28:15;;;;;;;3.15;2.92;;;15.90;99.90;;;;;;4959238;28;20039;-84
2021/07/08 06:30:42;;;;;;;4.45;3.30;;;15.90;99.90;;;;;;4976268;28;20041;-83
2021/07/08 06:33:08;;;;;;;3.28;2.97;;;15.90;99.90;;;;;;4997223;28;20014;-83
2021/07/08 06:35:34;;;;;;;5.20;3.40;;;15.90;99.90;;;;;;4972267;28;20506;-84
2021/07/08 06:38:00;;;;;;;3.50;3.20;;;15.90;99.90;;;;;;4979873;28;20038;-84
2021/07/08 06:40:26;;;;;;;3.55;3.25;;;15.90;99.90;;;;;;4987094;28;20031;-83
2021/07/08 06:42:53;;;;;;;4.10;3.70;;;15.90;99.90;;;;;;4963368;28;20054;-84
2021/07/08 06:45:19;;;;;;;4.57;3.92;;;15.90;99.90;;;;;;4975102;28;20084;-84
2021/07/08 06:47:49;;;;;;;4.00;3.60;;;16.00;99.90;;;;;;4976557;28;20030;-84
2021/07/08 06:50:16;;;;;;;4.93;3.65;;;16.00;99.90;;;;;;4968644;28;20035;-84
2021/07/08 06:52:42;;;;;;;6.80;3.67;;;16.00;99.90;;;;;;4973623;28;20493;-82
2021/07/08 06:55:09;;;;;;;6.22;4.07;;;16.00;99.90;;;;;;4980617;28;20030;-83
2021/07/08 06:57:35;;;;;;;4.70;3.70;;;16.00;99.90;;;;;;4960692;28;20180;-83
2021/07/08 07:00:01;;;;;;;4.63;3.95;;;16.00;99.90;;;;;;4966839;28;20553;-84
2021/07/08 07:02:26;;;;;;;4.22;3.83;;;16.00;99.90;;;;;;4978553;28;20157;-84
2021/07/08 07:04:52;;;;;;;4.30;3.90;;;16.00;99.90;;;;;;4952976;28;20034;-83
2021/07/08 07:07:18;;;;;;;6.43;4.43;;;16.10;99.90;;;;;;4991834;28;20385;-84
2021/07/08 07:09:44;;;;;;;4.60;4.10;;;16.10;99.90;;;;;;4953178;28;20030;-83
2021/07/08 07:12:10;;;;;;;7.88;5.70;;;16.10;99.90;;;;;;4957715;28;20513;-83
2021/07/08 07:14:35;;;;;;;6.38;5.05;;;16.20;99.90;;;;;;4969790;28;20034;-84
2021/07/08 07:17:01;;;;;;;6.30;5.07;;;16.20;99.90;;;;;;4957327;28;20041;-83
2021/07/08 07:19:27;;;;;;;4.13;3.67;;;16.30;99.90;;;;;;4956410;28;20034;-84
2021/07/08 07:21:54;;;;;;;6.97;5.15;;;16.30;99.90;;;;;;4980520;28;20034;-84
2021/07/08 07:24:21;;;;;;;4.75;3.65;;;16.30;99.90;;;;;;4970227;28;20037;-84
2021/07/08 07:26:48;;;;;;;4.53;3.70;;;16.30;99.90;;;;;;4969118;28;20034;-83
2021/07/08 07:29:14;;;;;;;4.25;3.85;;;16.30;99.90;;;;;;4946193;28;20030;-83
2021/07/08 07:31:40;;;;;;;4.60;3.97;;;16.40;99.90;;;;;;4958597;28;20462;-84
2021/07/08 07:34:07;;;;;;;4.72;3.88;;;16.40;99.90;;;;;;4953581;28;20122;-83
2021/07/08 07:36:33;;;;;;;4.28;3.80;;;16.40;99.90;;;;;;4958574;28;20037;-84
2021/07/08 07:38:58;;;;;;;3.97;3.20;;;16.50;99.90;;;;;;4953310;28;20261;-84
2021/07/08 07:41:24;;;;;;;3.58;3.28;;;16.50;99.90;;;;;;4972896;28;20041;-84
2021/07/08 07:43:50;;;;;;;3.60;3.30;;;16.50;99.90;;;;;;4967535;28;20512;-83
2021/07/08 07:46:16;;;;;;;5.82;4.05;;;16.50;99.90;;;;;;4934890;28;20035;-84
2021/07/08 07:48:43;;;;;;;4.25;3.33;;;16.60;99.90;;;;;;4944745;28;20093;-83
2021/07/08 07:51:08;;;;;;;4.75;3.78;;;16.60;99.90;;;;;;4964655;28;21431;-84
2021/07/08 07:53:34;;;;;;;4.15;3.75;;;16.70;99.90;;;;;;4945628;28;20030;-84
2021/07/08 07:56:00;;;;;;;4.63;3.97;;;16.70;99.90;;;;;;4967327;28;20065;-85
2021/07/08 07:58:26;;;;;;;4.68;4.03;;;16.70;99.90;;;;;;4950506;28;20034;-84
2021/07/08 08:00:55;;;;;;;4.47;3.65;;;16.80;99.90;;;;;;4953570;28;20041;-84
2021/07/08 08:03:21;;;;;;;5.07;3.80;;;16.80;99.90;;;;;;4960392;28;20046;-84
2021/07/08 08:08:34;;;;;;;3.88;3.47;;;16.80;99.90;;;;;;4983829;28;20038;-83
2021/07/08 08:11:00;;;;;;;4.82;4.32;;;16.80;99.90;;;;;;4948347;28;20041;-84
2021/07/08 08:13:27;;;;;;;5.05;4.30;;;16.80;99.90;;;;;;4960491;28;20497;-85
2021/07/08 08:15:53;;;;;;;5.22;4.68;;;16.90;99.90;;;;;;4967865;28;20093;-84
2021/07/08 08:18:21;;;;;;;4.97;4.28;;;17.00;99.90;;;;;;4981862;28;20026;-85
2021/07/08 08:20:47;;;;;;;5.75;5.07;;;17.00;99.90;;;;;;4963263;28;20046;-84
2021/07/08 08:23:13;;;;;;;5.13;4.63;;;17.00;99.90;;;;;;4961097;28;20050;-84
2021/07/08 08:25:39;;;;;;;5.75;4.63;;;17.10;99.90;;;;;;4963009;28;20034;-84
2021/07/08 08:28:05;;;;;;;4.45;4.05;;;17.10;99.90;;;;;;4979438;28;20038;-84
2021/07/08 08:30:31;;;;;;;5.55;4.85;;;17.10;99.90;;;;;;4973332;28;20035;-84
2021/07/08 08:32:57;;;;;;;5.88;4.53;;;17.10;99.90;;;;;;4984511;28;20068;-84
2021/07/08 08:35:22;;;;;;;5.68;4.78;;;17.10;99.90;;;;;;4981554;28;20026;-83
2021/07/08 08:37:48;;;;;;;5.43;4.85;;;17.20;99.90;;;;;;4979971;28;20109;-84
2021/07/08 08:40:15;;;;;;;5.28;4.65;;;17.20;99.90;;;;;;4946322;28;20031;-84
2021/07/08 08:42:45;;;;;;;5.28;4.72;;;17.10;99.90;;;;;;4953267;28;20176;-84
2021/07/08 08:45:17;;;;;;;5.90;4.30;;;17.10;99.90;;;;;;4962943;28;20035;-84
2021/07/08 08:47:57;;;;;;;6.07;5.43;;;17.10;99.90;;;;;;4952304;28;20043;-83
2021/07/08 08:50:25;;;;;;;6.13;5.07;;;17.10;99.90;;;;;;4956953;28;20033;-84
2021/07/08 08:52:52;;;;;;;5.30;4.75;;;17.10;99.90;;;;;;4950435;28;20029;-83
2021/07/08 08:55:18;;;;;;;5.15;4.65;;;17.10;99.90;;;;;;4960073;28;20069;-83
2021/07/08 08:57:46;;;;;;;4.50;4.10;;;17.20;99.90;;;;;;4979091;28;20417;-83
2021/07/08 09:00:39;;;;;;;7.28;3.97;;;17.10;99.90;;;;;;4962028;28;20704;-84
2021/07/08 09:03:07;;;;;;;3.63;3.13;;;17.20;99.90;;;;;;4982543;28;20035;-83
2021/07/08 09:05:34;;;;;;;5.60;3.63;;;17.10;99.90;;;;;;4966916;28;20053;-84
2021/07/08 09:08:19;;;;;;;3.67;3.38;;;17.10;99.90;;;;;;4973126;28;20330;-83
2021/07/08 09:10:49;;;;;;;4.18;3.78;;;17.10;99.90;;;;;;4956369;28;20106;-84
2021/07/08 09:13:15;;;;;;;11.00;3.10;;;17.10;99.90;;;;;;4987858;28;20432;-83
2021/07/08 09:15:41;;;;;;;4.60;4.03;;;17.20;99.90;;;;;;4981665;28;20062;-84
2021/07/08 09:18:08;;;;;;;6.10;5.07;;;17.20;99.90;;;;;;4967040;28;20038;-85
2021/07/08 09:20:36;;;;;;;6.57;5.47;;;17.20;99.90;;;;;;4964109;28;20030;-84
2021/07/08 09:23:28;;;;;;;7.03;5.70;;;17.20;99.90;;;;;;4987218;28;20125;-85
2021/07/08 09:25:54;;;;;;;7.13;5.82;;;17.20;99.90;;;;;;4954487;28;20042;-86
2021/07/08 09:28:22;;;;;;;6.50;5.40;;;17.20;99.90;;;;;;4956458;28;20065;-84
2021/07/08 09:31:01;;;;;;;7.35;5.75;;;17.30;99.90;;;;;;4967004;28;20031;-84
2021/07/08 09:33:38;;;;;;;6.80;5.50;;;17.40;99.90;;;;;;4979471;28;20531;-84
2021/07/08 09:36:24;;;;;;;5.78;5.20;;;17.50;99.90;;;;;;4972226;28;20034;-84
2021/07/08 09:38:50;;;;;;;;;;;17.60;99.90;;;;;;4967582;28;20042;-84
2021/07/08 09:41:25;;;;;;;7.22;5.50;;;17.70;99.90;;;;;;4966946;28;20327;-85
2021/07/08 09:43:51;;;;;;;9.13;7.53;;;17.70;99.90;;;;;;4965830;28;20101;-83
2021/07/08 09:46:31;;;;;;;8.45;6.40;;;17.80;99.90;;;;;;4957523;28;20038;-83
2021/07/08 09:49:09;;;;;;;8.73;7.03;;;17.80;99.90;;;;;;4950699;28;20062;-84
2021/07/08 09:51:35;;;;;;;6.88;6.13;;;18.00;99.90;;;;;;4984059;28;20117;-83
2021/07/08 09:54:08;;;;;;;8.57;6.45;;;18.10;99.90;;;;;;4962628;28;20074;-83
2021/07/08 09:56:46;;;;;;;7.32;6.53;;;18.20;99.90;;;;;;4969068;28;20026;-84
2021/07/08 09:59:20;;;;;;;6.35;5.57;;;18.30;99.90;;;;;;4971552;28;20058;-84
2021/07/08 10:01:55;;;;;;;6.85;6.10;;;18.40;99.90;;;;;;4978435;28;20089;-82
2021/07/08 10:04:21;;;;;;;6.47;5.53;;;18.50;99.90;;;;;;4980522;28;20477;-84
2021/07/08 10:06:47;;;;;;;5.80;5.20;;;18.50;99.90;;;;;;4972484;28;20030;-84
2021/07/08 10:09:18;;;;;;;6.10;4.95;;;18.50;99.90;;;;;;4964726;28;20035;-83
2021/07/08 10:11:50;;;;;;;4.80;4.28;;;18.60;99.90;;;;;;4966130;28;20097;-84
2021/07/08 10:14:18;;;;;;;5.85;4.72;;;18.50;99.90;;;;;;4981233;28;20022;-83
2021/07/08 10:16:49;;;;;;;4.78;4.38;;;18.40;99.90;;;;;;4983542;28;20591;-83
2021/07/08 10:19:18;;;;;;;5.93;4.18;;;18.40;99.90;;;;;;4978356;28;20561;-85
2021/07/08 10:21:46;;;;;;;4.32;3.92;;;18.30;99.90;;;;;;4967379;28;20033;-84
2021/07/08 10:24:13;;;;;;;4.80;4.25;;;18.30;99.90;;;;;;4963720;28;20043;-84
2021/07/08 10:26:39;;;;;;;4.88;4.45;;;18.10;99.90;;;;;;4966431;28;20030;-83
2021/07/08 10:29:06;;;;;;;5.10;4.18;;;18.10;99.90;;;;;;4942038;28;20035;-83
2021/07/08 10:31:32;;;;;;;4.07;3.78;;;18.10;99.90;;;;;;4962109;28;20030;-84
2021/07/08 10:34:11;;;;;;;5.97;3.92;;;18.10;99.90;;;;;;4971515;28;20385;-83
2021/07/08 10:36:39;;;;;;;5.00;4.53;;;18.20;99.90;;;;;;4968918;28;20031;-83
2021/07/08 10:39:19;;;;;;;3.83;3.42;;;18.20;99.90;;;;;;4947298;28;20497;-84
2021/07/08 10:41:49;;;;;;;4.20;3.47;;;18.20;99.90;;;;;;4964377;28;20038;-84
2021/07/08 10:44:33;;;;;;;4.65;4.03;;;18.20;99.90;;;;;;4979713;28;20113;-83
2021/07/08 10:47:02;;;;;;;5.18;4.68;;;18.30;99.90;;;;;;4955419;28;20077;-83
2021/07/08 10:49:39;;;;;;;5.43;4.70;;;18.40;99.90;;;;;;4951331;28;20046;-83
2021/07/08 10:52:09;;;;;;;4.60;3.97;;;18.60;99.90;;;;;;4984783;28;20050;-83
2021/07/08 10:54:35;;;;;;;5.07;4.55;;;18.90;99.90;;;;;;4960566;28;20034;-83
2021/07/08 10:57:03;;;;;;;5.00;4.50;;;19.20;99.90;;;;;;4966234;28;20034;-84
2021/07/08 10:59:45;;;;;;;4.18;3.78;;;19.40;99.90;;;;;;4960487;28;20043;-84
2021/07/08 11:02:43;;;;;;;3.42;3.13;;;19.70;99.90;;;;;;4949265;28;20094;-84
2021/07/08 11:05:09;;;;;;;3.25;2.95;;;20.00;99.90;;;;;;4977770;28;20031;-83
2021/07/08 11:07:45;;;;;;;5.28;3.00;;;20.20;99.90;;;;;;4965161;28;20037;-85
2021/07/08 11:10:12;;;;;;;2.97;2.70;;;20.40;99.90;;;;;;4955024;28;20038;-84
2021/07/08 11:12:39;;;;;;;2.50;2.30;;;20.70;99.90;;;;;;4952477;28;20035;-85
2021/07/08 11:15:07;;;;;;;2.33;2.13;;;20.90;99.90;;;;;;4976260;28;20034;-84
2021/07/08 11:17:48;;;;;;;3.88;2.13;;;21.10;99.90;;;;;;4966771;28;20118;-84
2021/07/08 11:20:31;;;;;;;2.05;1.85;;;21.20;99.90;;;;;;4968330;28;20482;-84
2021/07/08 11:23:17;;;;;;;2.22;2.03;;;21.20;99.90;;;;;;4980120;28;20042;-83
2021/07/08 11:25:43;;;;;;;1.80;1.70;;;21.20;99.90;;;;;;4954186;28;20051;-84
2021/07/08 11:28:30;;;;;;;2.20;1.90;;;21.20;99.90;;;;;;4966807;28;20050;-84
2021/07/08 11:31:07;;;;;;;2.35;1.80;;;21.30;99.90;;;;;;4973648;28;20041;-82
2021/07/08 11:33:37;;;;;;;1.98;1.88;;;21.40;99.90;;;;;;4972498;28;20038;-83
2021/07/08 11:36:21;;;;;;;2.30;2.05;;;21.50;99.90;;;;;;4962467;28;20459;-83
2021/07/08 11:38:49;;;;;;;2.03;1.83;;;21.60;99.90;;;;;;4957244;28;20026;-83
2021/07/08 11:41:15;;;;;;;1.70;1.60;;;21.90;99.90;;;;;;4977070;28;20034;-84
2021/07/08 11:43:51;;;;;;;2.50;1.45;;;22.10;99.90;;;;;;4952749;28;20031;-83
2021/07/08 11:46:17;;;;;;;;;;;22.10;99.90;;;;;;4961249;28;20038;-83
2021/07/08 11:48:47;;;;;;;1.40;1.30;;;22.10;99.90;;;;;;4983438;28;20292;-83
2021/07/08 11:51:29;;;;;;;1.95;1.52;;;22.00;99.90;;;;;;4960203;28;20035;-83
2021/07/08 11:53:56;;;;;;;2.20;2.00;;;22.00;99.90;;;;;;4971512;28;20046;-83
2021/07/08 11:56:23;;;;;;;1.80;1.40;;;22.00;99.90;;;;;;4957511;28;20058;-83
2021/07/08 11:58:49;;;;;;;1.30;1.20;;;22.00;99.90;;;;;;4960086;28;20175;-84
2021/07/08 12:01:19;;;;;;;1.60;1.50;;;21.90;99.90;;;;;;4964996;28;20537;-82
2021/07/08 12:03:51;;;;;;;1.55;1.33;;;22.10;99.90;;;;;;4953237;28;20121;-83
2021/07/08 12:06:25;;;;;;;1.20;1.10;;;22.40;99.90;;;;;;4961400;28;20057;-83
2021/07/08 12:08:54;;;;;;;1.10;1.00;;;22.60;99.90;;;;;;4972871;28;20126;-84
2021/07/08 12:11:51;;;;;;;2.00;0.70;;;22.60;99.90;;;;;;4967603;28;20081;-84
2021/07/08 12:14:16;;;;;;;1.50;0.98;;;22.60;99.90;;;;;;4967496;28;20034;-84
2021/07/08 12:16:48;;;;;;;1.30;0.90;;;22.50;99.90;;;;;;4957111;28;20022;-84
2021/07/08 12:19:29;;;;;;;0.70;0.70;;;22.30;99.90;;;;;;4952590;28;20038;-84
2021/07/08 12:22:02;;;;;;;0.80;0.80;;;22.20;99.90;;;;;;4949251;28;20306;-84
2021/07/08 12:24:33;;;;;;;0.65;0.65;;;21.90;99.90;;;;;;4961651;28;20085;-84
2021/07/08 12:27:00;;;;;;;0.80;0.80;;;21.70;99.90;;;;;;4970875;28;20076;-85
2021/07/08 12:29:28;;;;;;;0.77;0.70;;;21.60;99.90;;;;;;4952482;28;20053;-84
2021/07/08 12:32:06;;;;;;;0.80;0.80;;;21.30;99.90;;;;;;4940767;28;20034;-84
2021/07/08 12:34:53;;;;;;;0.60;0.60;;;21.20;99.90;;;;;;4960261;28;20027;-85
2021/07/08 12:37:38;;;;;;;0.90;0.80;;;21.10;99.90;;;;;;4953438;28;20034;-84
2021/07/08 12:40:14;;;;;;;1.48;0.93;;;20.80;99.90;;;;;;4968579;28;20035;-84
2021/07/08 12:42:42;;;;;;;1.83;0.98;;;20.60;99.90;;;;;;4975124;28;20034;-85
2021/07/08 12:45:20;;;;;;;1.15;0.80;;;20.40;99.90;;;;;;4946369;28;20555;-84
2021/07/08 12:47:54;;;;;;;0.88;0.85;;;20.30;99.90;;;;;;4963420;28;20036;-84
2021/07/08 12:50:25;;;;;;;0.73;0.73;;;20.20;99.90;;;;;;4960088;28;20039;-84
2021/07/08 12:52:51;;;;;;;0.82;0.82;;;20.20;99.90;;;;;;4960406;28;20509;-84
2021/07/08 12:55:43;;;;;;;1.33;1.00;;;20.40;99.90;;;;;;4945271;28;20493;-85
2021/07/08 12:58:16;;;;;;;1.33;0.95;;;20.60;99.90;;;;;;4953430;28;20042;-84
2021/07/08 13:00:43;;;;;;;1.70;0.90;;;20.80;99.90;;;;;;4960916;28;20085;-83